Time;durP1;ratioP1;P1;durP2;ratioP2;P2;SDS_P1;SDS_P2;PMS_P1;PMS_P2;Temp;Humidity;BMP_temperature;BMP_pressure;BME280_temperature;BME280_humidity;BME280_pressure;Samples;Min_cycle;Max_cycle;Signal;HPM_P1;HPM_P2
2022/05/29 00:00:53;;;;;;;1.70;1.60;;;18.00;46.80;;;-142.21;50.88;112049.66;5087577;28;20529;-71
2022/05/29 00:03:20;;;;;;;2.07;1.57;;;18.00;46.80;;;-142.21;50.95;112049.66;5092507;28;20585;-72
2022/05/29 00:05:50;;;;;;;3.87;2.00;;;18.00;47.00;;;-142.21;50.90;112049.66;5092011;28;20473;-72
2022/05/29 00:08:26;;;;;;;2.60;2.10;;;18.00;46.90;;;-142.21;51.48;112049.66;5090648;28;20484;-71
2022/05/29 00:10:56;;;;;;;6.63;1.70;;;18.00;47.10;;;-142.21;51.34;112049.66;5092391;28;20422;-72
2022/05/29 00:13:24;;;;;;;6.07;1.60;;;18.00;47.00;;;-142.21;51.50;112049.66;5092863;28;20430;-72
2022/05/29 00:15:52;;;;;;;3.00;1.67;;;18.00;47.10;;;-142.21;51.48;112049.66;5075436;28;20454;-72
2022/05/29 00:18:19;;;;;;;3.40;1.40;;;18.00;47.10;;;-142.21;50.56;112049.66;5064512;28;20448;-72
2022/05/29 00:20:52;;;;;;;1.97;1.37;;;18.00;46.70;;;-142.21;49.89;112049.66;5051843;28;20812;-72
2022/05/29 00:23:19;;;;;;;3.47;1.40;;;18.00;46.50;;;-142.21;48.33;112049.66;5059040;28;20467;-71
2022/05/29 00:25:51;;;;;;;2.40;1.20;;;18.00;46.00;;;-142.21;47.37;112049.66;5071764;28;20439;-72
2022/05/29 00:28:21;;;;;;;1.70;1.30;;;18.00;45.40;;;-142.21;46.91;112049.66;5071950;28;20412;-72
2022/05/29 00:30:50;;;;;;;1.63;1.30;;;18.00;45.20;;;-142.21;46.89;112049.66;5071867;28;20462;-72
2022/05/29 00:33:17;;;;;;;1.67;1.10;;;18.00;45.00;;;-142.21;46.48;112049.66;5063556;28;20504;-71
2022/05/29 00:35:45;;;;;;;2.80;1.33;;;18.00;44.90;;;-142.21;46.65;112049.66;5051540;28;20945;-72
2022/05/29 00:38:13;;;;;;;2.70;1.57;;;18.00;44.90;;;-142.21;46.32;112049.66;5074783;28;20447;-72
2022/05/29 00:40:50;;;;;;;4.27;1.70;;;18.00;44.90;;;-142.21;47.41;112049.66;5091988;28;20453;-71
2022/05/29 00:43:19;;;;;;;3.90;1.30;;;18.00;45.40;;;-142.21;49.41;112049.66;5092130;28;20509;-72
2022/05/29 00:45:52;;;;;;;5.20;1.70;;;18.00;46.30;;;-142.21;50.19;112049.66;5082353;28;20452;-72
2022/05/29 00:48:20;;;;;;;3.03;1.63;;;18.00;46.60;;;-142.21;52.01;112049.66;5072290;28;20779;-72
2022/05/29 00:50:50;;;;;;;1.40;1.30;;;18.00;47.30;;;-142.21;53.93;112049.66;5070823;28;20959;-72
2022/05/29 00:53:19;;;;;;;2.60;1.63;;;18.00;47.80;;;-142.21;54.82;112049.66;5072303;28;20489;-72
2022/05/29 00:55:54;;;;;;;1.83;1.30;;;17.90;48.00;;;-142.21;58.28;112049.66;5071247;28;20451;-72
2022/05/29 00:58:25;;;;;;;2.50;1.50;;;17.90;48.90;;;-142.21;56.91;112049.66;5075782;28;20895;-72
2022/05/29 01:00:56;;;;;;;3.40;1.73;;;17.80;48.70;;;-142.21;55.82;112049.66;5073724;28;20529;-71
2022/05/29 01:03:25;;;;;;;2.07;1.40;;;17.80;48.30;;;-142.21;55.44;112049.66;5075955;28;20989;-72
2022/05/29 01:05:52;;;;;;;1.57;1.30;;;17.80;48.20;;;-142.21;54.78;112049.66;5074999;28;20838;-71
2022/05/29 01:08:24;;;;;;;2.47;1.50;;;17.80;48.10;;;-142.21;54.12;112049.66;5093693;28;20533;-71
2022/05/29 01:11:12;;;;;;;2.67;1.60;;;17.80;47.80;;;-142.21;54.14;112049.66;5058876;28;20447;-72
2022/05/29 01:14:00;;;;;;;3.03;1.70;;;17.70;47.90;;;-142.21;54.21;112049.66;5064839;28;20443;-72
2022/05/29 01:16:42;;;;;;;3.47;1.80;;;17.70;47.90;;;-142.21;53.64;112049.66;5075673;28;20464;-71
2022/05/29 01:20:00;;;;;;;2.47;1.37;;;17.70;47.70;;;-142.21;53.51;112049.66;5077167;28;20469;-72
2022/05/29 01:23:00;;;;;;;3.67;1.60;;;17.70;47.90;;;-142.21;52.93;112049.66;5040243;28;21001;-71
2022/05/29 01:26:28;;;;;;;3.63;1.40;;;17.70;47.50;;;-142.21;53.56;112049.66;5087487;28;20443;-71
2022/05/29 01:29:01;;;;;;;2.80;1.40;;;17.70;47.60;;;-142.21;54.56;112049.66;5073472;28;20435;-72
2022/05/29 01:31:50;;;;;;;2.77;1.60;;;17.60;47.90;;;-142.21;53.97;112049.66;5084014;28;20986;-72
2022/05/29 01:34:29;;;;;;;2.70;1.67;;;17.60;47.90;;;-142.21;52.85;112049.66;5079473;28;20546;-72
2022/05/29 01:37:15;;;;;;;5.17;2.03;;;17.60;47.50;;;-142.21;52.03;112049.66;5072303;28;20518;-72
2022/05/29 01:40:04;;;;;;;2.57;1.30;;;17.60;47.20;;;-142.21;51.53;112049.66;5063587;28;20435;-72
2022/05/29 01:42:39;;;;;;;2.07;1.30;;;17.50;47.10;;;-142.21;51.70;112049.66;5060958;28;20470;-72
2022/05/29 01:45:24;;;;;;;3.13;1.50;;;17.50;47.10;;;-142.21;51.84;112049.66;5071013;28;20534;-72
2022/05/29 01:47:59;;;;;;;2.77;1.30;;;17.50;47.20;;;-142.21;52.77;112049.66;5062990;28;20509;-72
2022/05/29 01:50:36;;;;;;;3.17;1.40;;;17.50;47.60;;;-142.21;53.75;112049.66;5075146;28;20449;-71
2022/05/29 01:53:14;;;;;;;4.07;1.70;;;17.50;47.90;;;-142.21;53.34;112049.66;5077155;28;20901;-72
2022/05/29 01:55:51;;;;;;;2.20;1.57;;;17.40;47.90;;;-142.21;53.01;112049.66;5075493;28;20534;-72
2022/05/29 01:58:26;;;;;;;3.60;1.97;;;17.40;47.70;;;-142.21;52.43;112049.66;5078363;28;20442;-72
2022/05/29 02:01:00;;;;;;;3.63;1.50;;;17.40;47.50;;;-142.21;52.69;112049.66;5075851;28;20442;-72
2022/05/29 02:03:34;;;;;;;1.50;1.40;;;17.40;47.50;;;-142.21;53.15;112049.66;5085832;28;20489;-72
2022/05/29 02:06:14;;;;;;;3.50;1.47;;;17.40;47.70;;;-142.21;53.12;112049.66;5075181;28;20483;-73
2022/05/29 02:08:51;;;;;;;3.00;1.70;;;17.30;48.40;;;-142.21;52.26;112049.66;5073300;28;20512;-71
2022/05/29 02:11:24;;;;;;;3.33;1.80;;;17.40;47.60;;;-142.21;51.73;112049.66;5094934;28;20529;-72
2022/05/29 02:14:01;;;;;;;2.30;1.50;;;17.30;47.20;;;-142.21;51.97;112049.66;5088470;28;21007;-72
2022/05/29 02:16:39;;;;;;;2.87;1.17;;;17.40;47.90;;;-142.21;51.94;112049.66;5074691;28;20779;-72
2022/05/29 02:19:18;;;;;;;4.40;1.53;;;17.30;47.30;;;-142.21;51.89;112049.66;5068849;28;20441;-72
2022/05/29 02:21:53;;;;;;;4.93;2.10;;;17.30;47.20;;;-142.21;53.63;112049.66;5093036;28;20967;-71
2022/05/29 02:24:27;;;;;;;2.47;1.37;;;17.30;47.80;;;-142.21;53.66;112049.66;5082701;28;20470;-71
2022/05/29 02:27:02;;;;;;;5.87;1.70;;;17.30;48.00;;;-142.21;53.59;112049.66;5090553;28;20438;-72
2022/05/29 02:29:30;;;;;;;2.20;1.40;;;17.30;48.00;;;-142.21;53.87;112049.66;5088365;28;20514;-71
2022/05/29 02:32:10;;;;;;;3.70;1.57;;;17.20;48.00;;;-142.21;53.36;112049.66;5073395;28;20455;-72
2022/05/29 02:34:48;;;;;;;2.30;1.70;;;17.20;47.80;;;-142.21;52.70;112049.66;5080588;28;20447;-72
2022/05/29 02:37:25;;;;;;;2.13;1.63;;;17.20;47.60;;;-142.21;52.69;112049.66;5061889;28;20844;-72
2022/05/29 02:40:08;;;;;;;3.47;2.03;;;17.20;47.70;;;-142.21;52.62;112049.66;5075984;28;20443;-71
2022/05/29 02:42:47;;;;;;;2.13;1.20;;;17.20;47.50;;;-142.21;53.24;112049.66;5083383;28;20438;-71
2022/05/29 02:45:24;;;;;;;3.23;1.60;;;17.10;47.70;;;-142.21;52.67;112049.66;5076867;28;20919;-72
2022/05/29 02:48:05;;;;;;;3.23;1.67;;;17.10;47.50;;;-142.21;53.27;112049.66;5093090;28;20444;-72
2022/05/29 02:50:41;;;;;;;4.30;1.30;;;17.10;47.80;;;-142.21;53.23;112049.66;5091807;28;20474;-72
2022/05/29 02:53:14;;;;;;;5.17;1.60;;;17.10;47.80;;;-142.21;53.36;112049.66;5091011;28;20441;-71
2022/05/29 02:55:44;;;;;;;2.53;1.57;;;17.00;47.90;;;-142.21;52.81;112049.66;5066858;28;20441;-72
2022/05/29 02:58:18;;;;;;;3.07;1.80;;;17.00;47.60;;;-142.21;53.02;112049.66;5073087;28;20454;-72
2022/05/29 03:01:17;;;;;;;2.90;1.77;;;17.00;47.70;;;-142.21;52.67;112049.66;5073655;28;20525;-72
2022/05/29 03:04:01;;;;;;;1.93;1.40;;;17.00;47.70;;;-142.21;53.08;112049.66;5080879;28;21014;-72
2022/05/29 03:06:46;;;;;;;2.70;1.93;;;17.00;47.70;;;-142.21;53.76;112049.66;5057050;28;20451;-72
2022/05/29 03:09:54;;;;;;;4.90;1.70;;;17.00;47.90;;;-142.21;54.29;112049.66;5078297;28;20449;-72
2022/05/29 03:12:33;;;;;;;2.93;1.50;;;17.00;48.10;;;-142.21;54.49;112049.66;5053233;28;20914;-71
2022/05/29 03:15:22;;;;;;;3.30;1.30;;;17.00;48.10;;;-142.21;54.16;112049.66;5083543;28;20810;-72
2022/05/29 03:18:06;;;;;;;2.50;1.90;;;16.90;48.10;;;-142.21;54.07;112049.66;5075362;28;20443;-72
2022/05/29 03:20:45;;;;;;;4.20;1.63;;;16.90;48.10;;;-142.21;54.31;112049.66;5065482;28;20530;-72
2022/05/29 03:23:27;;;;;;;4.23;1.93;;;16.90;48.10;;;-142.21;54.59;112049.66;5081196;28;20463;-72
2022/05/29 03:26:00;;;;;;;1.80;1.40;;;16.80;48.20;;;-142.21;54.90;112049.66;5069240;28;20860;-72
2022/05/29 03:28:37;;;;;;;5.43;1.87;;;16.80;48.20;;;-142.21;56.06;112049.66;5074971;28;20436;-72
2022/05/29 03:31:17;;;;;;;3.50;1.73;;;16.80;48.60;;;-142.21;55.87;112049.66;5068182;28;20539;-72
2022/05/29 03:33:48;;;;;;;1.40;1.30;;;16.80;48.70;;;-142.21;56.61;112049.66;5079054;28;20450;-72
2022/05/29 03:36:16;;;;;;;3.43;1.63;;;16.80;48.80;;;-142.21;57.17;112049.66;5082495;28;20940;-72
2022/05/29 03:38:43;;;;;;;3.07;1.80;;;16.70;48.90;;;-142.21;58.14;112049.66;5074653;28;20534;-72
2022/05/29 03:41:16;;;;;;;5.57;2.00;;;16.70;49.20;;;-142.21;58.92;112049.66;5072061;28;20458;-72
2022/05/29 03:43:43;;;;;;;4.67;2.00;;;16.70;49.40;;;-142.21;59.21;112049.66;5060314;28;20474;-72
2022/05/29 03:46:10;;;;;;;4.40;1.97;;;16.70;49.50;;;-142.21;59.73;112049.66;5069669;28;20485;-72
2022/05/29 03:48:37;;;;;;;2.90;1.60;;;16.70;49.60;;;-142.21;60.62;112049.66;5077581;28;20451;-72
2022/05/29 03:51:07;;;;;;;3.33;1.70;;;16.70;49.80;;;-142.21;60.93;112049.66;5091826;28;20446;-72
2022/05/29 03:53:35;;;;;;;4.10;1.53;;;16.80;50.10;;;-142.21;61.57;112049.66;5087711;28;20534;-72
2022/05/29 03:56:04;;;;;;;2.50;1.90;;;16.80;50.20;;;-142.21;62.00;112049.66;5086801;28;20984;-72
2022/05/29 03:58:32;;;;;;;2.13;1.77;;;16.80;50.40;;;-142.21;62.69;112049.66;5073563;28;20452;-72
2022/05/29 04:00:59;;;;;;;2.60;1.60;;;16.70;50.50;;;-142.21;63.92;112049.66;5072249;28;20891;-72
2022/05/29 04:03:26;;;;;;;4.50;2.20;;;16.80;50.80;;;-142.21;64.60;112049.66;5073763;28;20487;-72
2022/05/29 04:05:55;;;;;;;3.00;2.07;;;16.70;50.70;;;-142.21;66.24;112049.66;5074499;28;20475;-72
2022/05/29 04:13:55;;;;;;;3.83;2.17;;;16.70;53.80;;;-142.21;83.48;112049.66;5054328;28;20545;-71
2022/05/29 04:16:23;;;;;;;7.93;2.40;;;16.60;55.20;;;-142.21;86.22;112049.66;5073447;28;20443;-72
2022/05/29 04:18:50;;;;;;;3.10;2.30;;;16.50;56.00;;;-142.21;87.50;112049.66;5075650;28;20997;-72
2022/05/29 04:21:17;;;;;;;3.20;2.10;;;16.50;57.00;;;-142.21;88.61;112049.66;5075937;28;20475;-72
2022/05/29 04:23:44;;;;;;;5.50;2.30;;;16.40;57.20;;;-142.21;90.59;112049.66;5083114;28;20565;-72
2022/05/29 04:26:16;;;;;;;3.33;1.93;;;16.30;57.90;;;-142.21;91.64;112049.66;5081344;28;20755;-72
2022/05/29 04:28:44;;;;;;;6.30;2.50;;;16.30;58.60;;;-142.21;92.01;112049.66;5073546;28;20442;-72
2022/05/29 04:31:11;;;;;;;4.57;2.20;;;16.20;58.50;;;-142.21;92.01;112049.66;5089223;28;20470;-72
2022/05/29 04:33:38;;;;;;;5.80;2.83;;;16.20;58.60;;;-142.21;92.56;112049.66;5077070;28;20512;-72
2022/05/29 04:36:06;;;;;;;4.10;2.27;;;16.20;58.90;;;-142.21;92.37;112049.66;5075172;28;20447;-72
2022/05/29 04:38:33;;;;;;;3.57;2.20;;;16.20;58.50;;;-142.21;93.21;112049.66;5090476;28;20464;-72
2022/05/29 04:41:07;;;;;;;4.60;2.20;;;16.10;58.80;;;-142.21;94.61;112049.66;5085221;28;20530;-71
2022/05/29 04:43:37;;;;;;;4.47;2.90;;;16.10;59.80;;;-142.21;94.22;112049.66;5080239;28;20474;-71
2022/05/29 04:46:05;;;;;;;7.50;2.60;;;16.10;60.10;;;-142.21;94.78;112049.66;5087171;28;20443;-72
2022/05/29 04:48:32;;;;;;;6.97;2.70;;;16.10;60.10;;;-142.21;95.15;112049.66;5072389;28;20443;-72
2022/05/29 04:51:02;;;;;;;5.57;3.00;;;16.10;59.80;;;-142.21;94.68;112049.66;5091113;28;20856;-72
2022/05/29 04:53:31;;;;;;;6.17;3.00;;;16.10;59.60;;;-142.21;94.75;112049.66;5074021;28;20440;-71
2022/05/29 04:56:00;;;;;;;4.93;2.83;;;16.10;60.00;;;-142.21;95.90;112049.66;5052371;28;20484;-71
2022/05/29 04:58:30;;;;;;;5.23;2.70;;;16.10;60.70;;;-142.21;96.27;112049.66;5086863;28;20478;-71
2022/05/29 05:01:00;;;;;;;5.67;2.70;;;16.00;60.00;;;-142.21;96.61;112049.66;5076169;28;20498;-71
2022/05/29 05:03:29;;;;;;;4.40;2.50;;;16.00;60.20;;;-142.21;96.50;112049.66;5102872;28;20522;-71
2022/05/29 05:05:56;;;;;;;4.40;2.30;;;16.00;60.20;;;-142.21;97.35;112049.66;5075281;28;20502;-71
2022/05/29 05:08:24;;;;;;;3.90;2.20;;;16.00;60.50;;;-142.21;97.17;112049.66;5076571;28;20479;-71
2022/05/29 05:10:51;;;;;;;3.40;2.30;;;15.90;60.50;;;-142.21;97.24;112049.66;5083502;28;20519;-71
2022/05/29 05:13:18;;;;;;;5.97;2.43;;;15.90;60.40;;;-142.21;97.55;112049.66;5077095;28;20951;-72
2022/05/29 05:15:45;;;;;;;3.87;2.10;;;15.90;61.20;;;-142.21;97.75;112049.66;5080628;28;20453;-71
2022/05/29 05:18:14;;;;;;;4.37;2.47;;;15.90;61.20;;;-142.21;97.35;112049.66;5085353;28;20443;-70
2022/05/29 05:20:41;;;;;;;5.67;2.57;;;15.90;61.40;;;-142.21;97.62;112049.66;5075364;28;20538;-70
2022/05/29 05:23:09;;;;;;;3.00;2.27;;;16.00;62.00;;;-142.21;98.02;112049.66;5058616;28;21014;-71
2022/05/29 05:25:38;;;;;;;6.67;2.53;;;16.00;62.10;;;-142.21;97.72;112049.66;5078676;28;20575;-71
2022/05/29 05:28:06;;;;;;;4.80;2.43;;;16.10;62.20;;;-142.21;96.82;112049.66;5072313;28;20446;-71
2022/05/29 05:30:34;;;;;;;4.33;2.50;;;16.10;61.80;;;-142.21;96.56;112049.66;5076987;28;20545;-71
2022/05/29 05:33:01;;;;;;;5.60;2.60;;;16.10;61.70;;;-142.21;95.93;112049.66;5071355;28;20471;-71
2022/05/29 05:35:29;;;;;;;5.60;3.13;;;16.10;61.40;;;-142.21;96.10;112049.66;5088066;28;20477;-71
2022/05/29 05:37:57;;;;;;;4.17;2.07;;;16.10;61.40;;;-142.21;95.44;112049.66;5070963;28;20868;-71
2022/05/29 05:40:24;;;;;;;2.97;1.93;;;16.10;61.00;;;-142.21;95.64;112049.66;5085008;28;20935;-71
2022/05/29 05:42:52;;;;;;;5.77;2.17;;;16.10;61.10;;;-142.21;96.00;112049.66;5091953;28;20530;-71
2022/05/29 05:45:19;;;;;;;3.87;2.20;;;16.20;61.00;;;-142.21;97.02;112049.66;5086427;28;20882;-71
2022/05/29 05:47:46;;;;;;;4.33;2.30;;;16.20;61.60;;;-142.21;96.59;112049.66;5068355;28;21025;-71
2022/05/29 05:50:15;;;;;;;4.23;2.37;;;16.20;61.50;;;-142.21;95.24;112049.66;5070789;28;20451;-71
2022/05/29 05:52:44;;;;;;;1.97;1.70;;;16.20;60.90;;;-142.21;93.96;112049.66;5076160;28;20530;-71
2022/05/29 05:55:13;;;;;;;4.83;2.33;;;16.30;61.20;;;-142.21;94.10;112049.66;5088179;28;20470;-71
2022/05/29 05:57:40;;;;;;;2.37;2.17;;;16.30;60.70;;;-142.21;94.46;112049.66;5092992;28;20453;-71
2022/05/29 06:00:12;;;;;;;3.37;2.73;;;16.30;60.70;;;-142.21;94.32;112049.66;5077215;28;21089;-71
2022/05/29 06:02:42;;;;;;;3.23;1.93;;;16.40;60.70;;;-142.21;94.21;112049.66;5074577;28;20550;-71
2022/05/29 06:05:11;;;;;;;4.20;2.17;;;16.40;60.50;;;-142.21;93.21;112049.66;5086518;28;20490;-71
2022/05/29 06:07:38;;;;;;;4.27;2.27;;;16.40;60.00;;;-142.21;93.47;112049.66;5055100;28;20494;-71
2022/05/29 06:10:09;;;;;;;4.97;2.23;;;16.50;60.20;;;-142.21;94.04;112049.66;5077066;28;20474;-71
2022/05/29 06:12:37;;;;;;;5.67;2.50;;;16.50;60.60;;;-142.21;93.05;112049.66;5090757;28;20444;-71
2022/05/29 06:15:05;;;;;;;4.33;2.50;;;16.60;60.00;;;-142.21;91.58;112049.66;5077603;28;20461;-71
2022/05/29 06:17:32;;;;;;;4.93;2.23;;;16.60;59.50;;;-142.21;93.01;112049.66;5093534;28;20442;-71
2022/05/29 06:20:01;;;;;;;5.03;2.07;;;16.80;59.70;;;-142.21;92.71;112049.66;5074486;28;21039;-71
2022/05/29 06:22:28;;;;;;;6.77;2.40;;;16.80;59.50;;;-142.21;91.98;112049.66;5090209;28;20529;-71
2022/05/29 06:24:55;;;;;;;3.67;2.00;;;16.90;59.30;;;-142.21;93.71;112049.66;5083404;28;20482;-71
2022/05/29 06:27:25;;;;;;;3.83;2.10;;;17.00;59.80;;;-142.21;91.98;112049.66;5074894;28;20478;-71
2022/05/29 06:29:53;;;;;;;4.40;2.10;;;17.10;59.60;;;-142.21;92.13;112049.66;5074387;28;20457;-71
2022/05/29 06:32:20;;;;;;;6.87;2.80;;;17.20;59.30;;;-142.21;91.35;112049.66;5092630;28;20566;-71
2022/05/29 06:34:47;;;;;;;5.07;2.60;;;17.30;59.40;;;-142.21;91.79;112049.66;5075749;28;20444;-72
2022/05/29 06:37:15;;;;;;;5.50;2.70;;;17.40;59.30;;;-142.21;89.47;112049.66;5089728;28;20446;-71
2022/05/29 06:39:42;;;;;;;3.57;2.33;;;17.50;58.50;;;-142.21;89.44;112049.66;5087963;28;20900;-70
2022/05/29 06:42:09;;;;;;;3.40;2.30;;;17.50;58.50;;;-142.21;87.31;112049.66;5073712;28;20444;-71
2022/05/29 06:44:38;;;;;;;3.00;2.00;;;17.50;57.60;;;-142.21;85.83;112049.66;5086529;28;20601;-71
2022/05/29 06:47:07;;;;;;;3.13;1.80;;;17.50;57.00;;;-142.21;85.41;112049.66;5068759;28;20454;-71
2022/05/29 06:49:35;;;;;;;2.77;1.77;;;17.60;57.10;;;-142.21;84.59;112049.66;5087888;28;20543;-71
2022/05/29 06:52:07;;;;;;;4.37;2.30;;;17.60;56.60;;;-142.21;85.02;112049.66;5085410;28;20507;-71
2022/05/29 06:54:35;;;;;;;3.70;2.10;;;17.50;56.80;;;-142.21;83.11;112049.66;5090403;28;20439;-71
2022/05/29 06:57:04;;;;;;;5.00;1.83;;;17.40;56.20;;;-142.21;83.49;112049.66;5074602;28;20447;-72
2022/05/29 06:59:31;;;;;;;4.13;1.70;;;17.50;56.40;;;-142.21;84.41;112049.66;5082939;28;20503;-71
2022/05/29 07:07:30;;;;;;;2.67;1.90;;;17.70;56.10;;;-142.21;82.92;112049.66;5079426;28;20795;-72
2022/05/29 07:09:59;;;;;;;3.67;1.80;;;17.70;55.90;;;-142.21;80.77;112049.66;5063868;28;20510;-71
2022/05/29 07:12:31;;;;;;;4.63;1.90;;;17.70;55.60;;;-142.21;80.28;112049.66;5062827;28;20534;-71
2022/05/29 07:15:06;;;;;;;5.23;1.70;;;17.70;55.30;;;-142.21;81.38;112049.66;5077141;28;20431;-72
2022/05/29 07:17:36;;;;;;;5.70;1.90;;;17.70;55.40;;;-142.21;81.44;112049.66;5092744;28;20450;-71
2022/05/29 07:20:05;;;;;;;3.83;1.70;;;17.70;55.30;;;-142.21;80.84;112049.66;5083726;28;20543;-72
2022/05/29 07:22:33;;;;;;;3.13;1.77;;;17.70;55.20;;;-142.21;81.00;112049.66;5073410;28;20448;-72
2022/05/29 07:25:00;;;;;;;4.27;1.63;;;17.70;55.10;;;-142.21;79.90;112049.66;5072228;28;20488;-72
2022/05/29 07:27:27;;;;;;;3.57;1.77;;;17.60;54.70;;;-142.21;80.33;112049.66;5069514;28;20479;-72
2022/05/29 07:29:54;;;;;;;2.90;1.80;;;17.60;54.80;;;-142.21;80.95;112049.66;5066886;28;20440;-72
2022/05/29 07:32:23;;;;;;;4.63;1.50;;;17.60;55.20;;;-142.21;79.16;112049.66;5088161;28;20502;-73
2022/05/29 07:34:53;;;;;;;2.77;1.53;;;17.60;54.50;;;-142.21;78.37;112049.66;5081787;28;20448;-71
2022/05/29 07:37:21;;;;;;;2.30;1.40;;;17.50;54.30;;;-142.21;75.47;112049.66;5072195;28;20479;-72
2022/05/29 07:39:52;;;;;;;2.43;1.70;;;17.50;53.40;;;-142.21;76.55;112049.66;5078732;28;20586;-72
2022/05/29 07:45:08;;;;;;;2.50;1.50;;;17.50;53.80;;;-142.21;77.77;112049.66;5073947;28;20972;-72
2022/05/29 07:47:41;;;;;;;2.30;1.27;;;17.50;53.90;;;-142.21;77.47;112049.66;5092543;28;20954;-72
2022/05/29 07:50:12;;;;;;;1.37;1.27;;;17.50;54.40;;;-142.21;75.72;112049.66;5088330;28;20439;-72
2022/05/29 07:52:39;;;;;;;1.67;1.50;;;17.50;53.30;;;-142.21;74.51;112049.66;5093281;28;20525;-72
2022/05/29 07:55:07;;;;;;;3.80;1.30;;;17.50;53.10;;;-142.21;77.75;112049.66;5091016;28;20547;-71
2022/05/29 07:57:35;;;;;;;3.07;1.50;;;17.50;53.80;;;-142.21;76.54;112049.66;5086697;28;20444;-72
2022/05/29 08:00:02;;;;;;;1.83;1.67;;;17.40;53.60;;;-142.21;75.54;112049.66;5079180;28;20449;-71
2022/05/29 08:02:34;;;;;;;1.80;1.30;;;17.40;53.30;;;-142.21;74.49;112049.66;5082959;28;20447;-72
2022/05/29 08:05:02;;;;;;;1.93;1.10;;;17.30;53.10;;;-142.21;75.72;112049.66;5072508;28;20843;-72
2022/05/29 08:07:31;;;;;;;1.30;1.07;;;17.30;53.30;;;-142.21;76.80;112049.66;5080399;28;20473;-72
2022/05/29 08:10:00;;;;;;;1.43;1.30;;;17.30;53.60;;;-142.21;77.64;112049.66;5087630;28;20519;-72
2022/05/29 08:12:27;;;;;;;2.40;1.23;;;17.30;53.90;;;-142.21;77.29;112049.66;5068240;28;20490;-71
2022/05/29 08:14:54;;;;;;;1.30;1.20;;;17.20;53.80;;;-142.21;77.35;112049.66;5056908;28;20466;-72
2022/05/29 08:17:22;;;;;;;2.37;1.47;;;17.20;53.80;;;-142.21;78.33;112049.66;5071898;28;20461;-72
2022/05/29 08:19:49;;;;;;;2.33;1.37;;;17.20;54.00;;;-142.21;79.77;112049.66;5081168;28;20973;-72
2022/05/29 08:22:16;;;;;;;1.20;1.10;;;17.20;54.20;;;-142.21;82.03;112049.66;5085261;28;21028;-73
2022/05/29 08:33:13;;;;;;;1.33;1.23;;;17.10;55.50;;;-142.21;80.84;112049.66;5068732;28;20560;-72
2022/05/29 08:35:44;;;;;;;1.33;1.10;;;17.10;54.80;;;-142.21;81.00;112049.66;5073420;28;20431;-71
2022/05/29 08:38:13;;;;;;;2.07;1.20;;;17.10;54.90;;;-142.21;80.07;112049.66;5080325;28;20474;-72
2022/05/29 08:40:47;;;;;;;1.73;1.20;;;17.10;54.70;;;-142.21;79.62;112049.66;5086450;28;20483;-71
2022/05/29 08:43:27;;;;;;;1.00;1.00;;;17.20;54.50;;;-142.21;79.25;112049.66;5079467;28;20467;-71
2022/05/29 08:45:55;;;;;;;3.43;1.70;;;17.20;54.60;;;-142.21;77.82;112049.66;5085231;28;20462;-71
2022/05/29 08:48:26;;;;;;;1.60;1.10;;;17.20;54.00;;;-142.21;76.65;112049.66;5071867;28;20451;-73
2022/05/29 08:51:18;;;;;;;1.70;1.60;;;17.30;54.00;;;-142.21;77.87;112049.66;5073929;28;20462;-72
2022/05/29 08:54:02;;;;;;;2.00;1.10;;;17.30;53.80;;;-142.21;77.77;112049.66;5087467;28;20461;-71
2022/05/29 08:56:38;;;;;;;1.67;1.27;;;17.40;54.00;;;-142.21;80.34;112049.66;5072305;28;20508;-71
2022/05/29 08:59:21;;;;;;;2.20;1.13;;;17.40;54.70;;;-142.21;80.60;112049.66;5069163;28;20470;-72
2022/05/29 09:02:10;;;;;;;2.30;1.40;;;17.50;54.70;;;-142.21;82.36;112049.66;5078764;28;20530;-71
2022/05/29 09:04:45;;;;;;;1.73;1.20;;;17.50;55.50;;;-142.21;85.43;112049.66;5076788;28;20549;-71
2022/05/29 09:07:17;;;;;;;4.63;1.77;;;17.70;56.50;;;-142.21;85.35;112049.66;5071579;28;20431;-72
2022/05/29 09:09:51;;;;;;;1.93;1.10;;;17.70;56.50;;;-142.21;84.92;112049.66;5072242;28;20470;-71
2022/05/29 09:12:31;;;;;;;1.50;1.30;;;17.70;56.40;;;-142.21;82.99;112049.66;5079170;28;20823;-70
2022/05/29 09:15:07;;;;;;;1.40;1.30;;;17.70;56.00;;;-142.21;83.73;112049.66;5087862;28;20519;-71
2022/05/29 09:17:41;;;;;;;3.93;1.47;;;17.70;56.00;;;-142.21;82.05;112049.66;5073377;28;20471;-71
2022/05/29 09:20:26;;;;;;;1.70;1.20;;;17.80;55.40;;;-142.21;82.23;112049.66;5084327;28;20438;-71
2022/05/29 09:22:56;;;;;;;1.30;1.20;;;17.80;55.40;;;-142.21;82.14;112049.66;5063428;28;20469;-71
2022/05/29 09:25:34;;;;;;;1.53;1.23;;;17.80;55.50;;;-142.21;82.09;112049.66;5080339;28;20533;-72
2022/05/29 09:28:09;;;;;;;2.13;1.50;;;17.80;55.40;;;-142.21;80.16;112049.66;5075977;28;20447;-72
2022/05/29 09:30:38;;;;;;;1.47;1.03;;;17.90;54.90;;;-142.21;79.98;112049.66;5086590;28;20952;-72
2022/05/29 09:33:16;;;;;;;1.93;1.57;;;18.00;54.70;;;-142.21;78.66;112049.66;5095476;28;20477;-72
2022/05/29 09:35:53;;;;;;;4.37;1.40;;;18.10;54.40;;;-142.21;78.16;112049.66;5088738;28;20772;-72
2022/05/29 09:38:30;;;;;;;1.97;1.40;;;18.10;54.00;;;-142.21;78.84;112049.66;5075797;28;20470;-71
2022/05/29 09:41:05;;;;;;;3.00;1.70;;;18.20;54.30;;;-142.21;78.29;112049.66;5065647;28;20535;-72
2022/05/29 09:43:35;;;;;;;2.33;1.20;;;18.20;54.00;;;-142.21;76.53;112049.66;5077679;28;20467;-72
2022/05/29 09:46:22;;;;;;;3.87;1.33;;;18.30;53.60;;;-142.21;73.88;112049.66;5063379;28;20487;-72
2022/05/29 09:51:49;;;;;;;2.53;1.23;;;18.60;52.50;;;-142.21;72.11;112049.66;5059689;28;20453;-72
2022/05/29 09:54:29;;;;;;;1.43;1.13;;;18.70;52.40;;;-142.21;69.81;112049.66;5074140;28;20530;-72
2022/05/29 09:57:08;;;;;;;1.53;1.03;;;18.90;51.90;;;-142.21;66.89;112049.66;5073255;28;20449;-72
2022/05/29 09:59:43;;;;;;;4.27;1.60;;;19.00;51.10;;;-142.21;64.26;112049.66;5054471;28;20428;-72
2022/05/29 10:02:26;;;;;;;1.83;1.10;;;19.10;50.60;;;-142.21;64.19;112049.66;5034295;28;20482;-72
2022/05/29 10:04:57;;;;;;;3.00;1.60;;;19.20;50.40;;;-142.21;62.80;112049.66;5061107;28;20892;-72
2022/05/29 10:07:40;;;;;;;1.93;1.50;;;19.30;49.90;;;-142.21;65.35;112049.66;5079850;28;20530;-71
2022/05/29 10:10:11;;;;;;;1.47;1.30;;;19.40;50.80;;;-142.21;61.27;112049.66;5076965;28;20522;-72
2022/05/29 10:12:45;;;;;;;5.50;1.40;;;19.40;49.90;;;-142.21;63.17;112049.66;5077403;28;20501;-72
2022/05/29 10:15:38;;;;;;;1.83;1.20;;;19.50;50.10;;;-142.21;61.46;112049.66;5074266;28;20578;-72
2022/05/29 10:18:32;;;;;;;3.40;1.37;;;19.60;49.70;;;-142.21;60.32;112049.66;5075296;28;20481;-71
2022/05/29 10:21:13;;;;;;;1.70;1.20;;;19.70;49.40;;;-142.21;59.95;112049.66;5050922;28;20224;-71
2022/05/29 10:23:41;;;;;;;2.70;1.50;;;19.70;49.20;;;-142.21;60.05;112049.66;5070145;28;20197;-71
2022/05/29 10:26:27;;;;;;;3.23;1.37;;;19.50;48.90;;;-142.21;59.71;112049.66;5071899;28;20540;-72
2022/05/29 10:28:55;;;;;;;3.03;1.60;;;19.50;48.90;;;-142.21;59.83;112049.66;5074027;28;20432;-72
2022/05/29 10:31:30;;;;;;;1.30;1.20;;;19.50;49.00;;;-142.21;57.46;112049.66;5072719;28;20836;-72
2022/05/29 10:34:07;;;;;;;1.97;1.47;;;19.40;48.30;;;-142.21;58.50;112049.66;5090611;28;20458;-72
2022/05/29 10:36:36;;;;;;;1.77;1.20;;;19.30;48.90;;;-142.21;57.59;112049.66;5093362;28;20437;-72
2022/05/29 10:39:13;;;;;;;1.37;1.27;;;19.40;49.20;;;-142.21;61.39;112049.66;5075743;28;20205;-72
2022/05/29 10:41:44;;;;;;;2.13;1.40;;;19.60;49.90;;;-142.21;60.79;112049.66;5073745;28;20533;-72
2022/05/29 10:44:33;;;;;;;3.50;1.40;;;19.80;49.80;;;-142.21;50.80;112049.66;5074818;28;20212;-71
2022/05/29 10:47:08;;;;;;;2.63;1.00;;;20.10;46.80;;;-142.21;47.66;112049.66;5065821;28;20256;-72
2022/05/29 10:49:45;;;;;;;2.57;1.30;;;20.20;45.50;;;-142.21;47.15;112049.66;5093408;28;20185;-72